createdAt,value
2022-12-01T00:01:23.375Z,8.52
2022-12-01T00:04:39.823Z,8.95
2022-12-01T00:07:28.356Z,7.93
2022-12-01T00:10:13.408Z,8.98
2022-12-01T00:12:43.498Z,8.32
2022-12-01T00:15:13.330Z,9.05
2022-12-01T00:17:39.850Z,8.18
2022-12-01T00:20:07.203Z,7.57
2022-12-01T00:22:33.762Z,8.77
2022-12-01T00:25:00.368Z,7.75
2022-12-01T00:27:26.907Z,7.57
2022-12-01T00:29:53.487Z,8.20
2022-12-01T00:32:20.102Z,7.82
2022-12-01T00:34:46.660Z,8.05
2022-12-01T00:37:33.112Z,8.10
2022-12-01T00:39:59.671Z,8.60
2022-12-01T00:42:26.904Z,8.52
2022-12-01T00:44:53.803Z,7.75
2022-12-01T00:47:20.748Z,8.65
2022-12-01T00:50:15.198Z,8.80
2022-12-01T00:53:00.712Z,9.23
2022-12-01T00:55:27.261Z,9.05
2022-12-01T00:57:53.769Z,8.35
2022-12-01T01:00:20.608Z,9.02
2022-12-01T01:02:47.259Z,8.70
2022-12-01T01:05:13.819Z,8.95
2022-12-01T01:07:40.386Z,9.45
2022-12-01T01:10:07.480Z,9.82
2022-12-01T01:12:34.140Z,8.80
2022-12-01T01:15:00.673Z,9.75
2022-12-01T01:17:27.198Z,9.95
2022-12-01T01:19:54.003Z,9.50
2022-12-01T01:24:55.813Z,9.13
2022-12-01T01:27:26.402Z,9.43
2022-12-01T01:29:52.935Z,10.60
2022-12-01T01:43:55.192Z,10.10
2022-12-01T01:46:32.290Z,10.18
2022-12-01T01:49:02.036Z,10.32
2022-12-01T01:51:50.389Z,9.85
2022-12-01T01:54:28.729Z,10.43
2022-12-01T01:56:57.607Z,10.68
2022-12-01T01:59:42.912Z,10.18
2022-12-01T02:02:12.214Z,10.35
2022-12-01T02:09:52.871Z,10.70
2022-12-01T02:12:47.337Z,10.75
2022-12-01T02:15:37.920Z,11.12
2022-12-01T02:18:20.793Z,9.90
2022-12-01T02:21:19.545Z,10.93
2022-12-01T02:24:19.611Z,12.23
2022-12-01T02:30:01.826Z,10.45
2022-12-01T02:32:47.361Z,10.57
2022-12-01T02:35:42.753Z,10.35
2022-12-01T02:38:28.183Z,11.57
2022-12-01T02:41:02.034Z,10.85
2022-12-01T02:44:04.026Z,10.32
2022-12-01T02:49:25.706Z,10.23
2022-12-01T02:51:54.654Z,10.07
2022-12-01T02:54:22.684Z,10.25
2022-12-01T02:56:52.960Z,10.27
2022-12-01T02:59:19.864Z,9.02
2022-12-01T03:02:11.758Z,9.82
2022-12-01T03:05:00.769Z,9.63
2022-12-01T03:07:33.381Z,9.68
2022-12-01T03:10:25.190Z,9.98
2022-12-01T03:13:03.875Z,9.90
2022-12-01T03:15:36.630Z,10.15
2022-12-01T03:18:19.503Z,10.18
2022-12-01T03:20:51.628Z,10.25
2022-12-01T03:23:23.307Z,10.27
2022-12-01T03:25:52.448Z,9.98
2022-12-01T03:28:23.161Z,9.55
2022-12-01T03:30:55.864Z,10.25
2022-12-01T03:33:33.887Z,9.55
2022-12-01T03:36:10.261Z,8.95
2022-12-01T03:38:37.562Z,9.43
2022-12-01T03:41:14.370Z,9.23
2022-12-01T03:47:04.259Z,9.65
2022-12-01T03:49:31.833Z,9.57
2022-12-01T03:51:58.494Z,9.35
2022-12-01T03:54:46.755Z,9.82
2022-12-01T03:57:26.480Z,10.40
2022-12-01T03:59:54.151Z,9.40
2022-12-01T04:02:20.909Z,9.38
2022-12-01T04:04:47.541Z,8.88
2022-12-01T04:07:14.876Z,8.93
2022-12-01T04:09:41.995Z,9.73
2022-12-01T04:12:32.996Z,9.15
2022-12-01T04:15:02.728Z,8.88
2022-12-01T04:17:29.981Z,9.65
2022-12-01T04:19:56.797Z,8.50
2022-12-01T04:22:24.463Z,9.10
2022-12-01T04:24:51.288Z,8.73
2022-12-01T04:27:18.284Z,8.65
2022-12-01T04:29:44.834Z,9.35
2022-12-01T04:34:46.592Z,9.07
2022-12-01T04:37:13.213Z,8.80
2022-12-01T04:39:42.103Z,9.77
2022-12-01T04:42:09.796Z,13.88
2022-12-01T04:44:37.188Z,15.27
2022-12-01T04:50:49.581Z,12.93
2022-12-01T04:53:16.138Z,12.95
2022-12-01T04:55:42.683Z,13.73
2022-12-01T04:58:09.211Z,14.02
2022-12-01T05:00:35.777Z,13.80
2022-12-01T05:03:15.058Z,13.13
2022-12-01T05:05:42.395Z,11.82
2022-12-01T05:08:08.956Z,11.70
2022-12-01T05:10:36.965Z,11.18
2022-12-01T05:13:05.251Z,11.10
2022-12-01T05:18:13.403Z,11.80
2022-12-01T05:20:59.245Z,11.35
2022-12-01T05:23:32.094Z,10.18
2022-12-01T05:25:59.048Z,10.63
2022-12-01T05:28:26.888Z,11.00
2022-12-01T05:30:54.774Z,10.95
2022-12-01T05:33:22.637Z,11.77
2022-12-01T05:46:30.496Z,11.88
2022-12-01T05:48:57.104Z,12.00
2022-12-01T05:51:23.747Z,11.70
2022-12-01T05:53:50.290Z,11.88
2022-12-01T05:56:19.319Z,11.52
2022-12-01T05:58:45.891Z,12.50
2022-12-01T06:04:01.470Z,10.95
2022-12-01T06:06:28.056Z,11.65
2022-12-01T06:08:54.782Z,11.90
2022-12-01T06:11:21.513Z,12.57
2022-12-01T06:13:48.085Z,12.20
2022-12-01T06:16:14.838Z,12.15
2022-12-01T06:18:42.787Z,12.02
2022-12-01T06:28:58.483Z,12.90
2022-12-01T07:29:21.467Z,19.80
2022-12-01T07:40:31.301Z,18.70
2022-12-01T08:12:39.513Z,17.70
2022-12-01T08:15:06.609Z,18.05
2022-12-01T08:17:33.210Z,19.52
2022-12-01T08:20:00.487Z,19.10
2022-12-01T08:22:27.008Z,17.62
2022-12-01T08:24:53.565Z,15.90
2022-12-01T08:27:20.188Z,14.20
2022-12-01T08:29:47.335Z,15.60
2022-12-01T08:33:16.124Z,19.37
2022-12-01T08:35:16.780Z,18.17
2022-12-01T08:43:00.924Z,16.80
2022-12-01T08:45:35.303Z,16.10
2022-12-01T08:48:02.073Z,17.50
2022-12-01T08:53:09.668Z,15.82
2022-12-01T08:55:36.431Z,15.52
2022-12-01T09:08:47.572Z,15.73
2022-12-01T09:11:16.529Z,15.80
2022-12-01T09:13:54.961Z,14.70
2022-12-01T09:16:22.205Z,12.35
2022-12-01T09:18:49.263Z,14.02
2022-12-01T09:21:24.087Z,14.70
2022-12-01T09:23:50.883Z,12.05
2022-12-01T09:26:22.849Z,11.45
2022-12-01T09:29:13.795Z,11.23
2022-12-01T09:31:41.092Z,10.00
2022-12-01T09:34:12.018Z,10.77
2022-12-01T09:36:38.834Z,10.88
2022-12-01T09:39:09.065Z,10.80
2022-12-01T09:41:40.716Z,11.02
2022-12-01T09:44:30.391Z,11.12
2022-12-01T09:47:34.600Z,10.27
2022-12-01T09:50:07.760Z,12.50
2022-12-01T09:52:53.325Z,11.70
2022-12-01T09:57:57.456Z,12.25
2022-12-01T10:00:30.779Z,13.38
2022-12-01T10:03:45.050Z,12.05
2022-12-01T10:09:12.462Z,13.60
2022-12-01T10:11:43.491Z,12.60
2022-12-01T10:14:22.397Z,13.20
2022-12-01T10:17:26.754Z,14.98
2022-12-01T10:20:31.789Z,13.60
2022-12-01T10:23:15.198Z,14.70
2022-12-01T10:25:44.781Z,14.40
2022-12-01T10:31:58.474Z,12.40
2022-12-01T10:34:28.788Z,11.10
2022-12-01T10:36:56.946Z,12.37
2022-12-01T10:39:39.690Z,11.95
2022-12-01T10:42:11.143Z,11.45
2022-12-01T10:44:38.161Z,11.55
2022-12-01T10:47:37.650Z,12.30
2022-12-01T10:50:04.619Z,11.32
2022-12-01T10:52:43.152Z,12.18
2022-12-01T10:55:27.886Z,11.05
2022-12-01T10:57:57.862Z,10.50
2022-12-01T11:03:22.689Z,10.70
2022-12-01T11:06:07.760Z,10.77
2022-12-01T11:08:40.361Z,10.57
2022-12-01T11:11:24.760Z,10.57
2022-12-01T11:13:51.609Z,9.35
2022-12-01T11:16:33.536Z,11.10
2022-12-01T11:19:09.388Z,10.77
2022-12-01T11:21:46.609Z,10.77
2022-12-01T11:24:31.258Z,10.73
2022-12-01T11:27:00.021Z,10.32
2022-12-01T11:29:36.127Z,9.65
2022-12-01T11:32:18.177Z,10.20
2022-12-01T11:34:59.688Z,10.07
2022-12-01T11:37:33.315Z,9.23
2022-12-01T11:40:27.888Z,9.43
2022-12-01T11:43:05.723Z,9.50
2022-12-01T11:45:37.056Z,9.23
2022-12-01T11:48:35.111Z,9.40
2022-12-01T11:51:04.521Z,9.20
2022-12-01T11:53:40.086Z,9.35
2022-12-01T11:56:17.131Z,8.93
2022-12-01T11:58:46.677Z,9.00
2022-12-01T12:01:36.060Z,9.50
2022-12-01T12:04:28.413Z,9.00
2022-12-01T12:07:14.441Z,9.93
2022-12-01T12:10:19.687Z,9.23
2022-12-01T12:13:04.535Z,9.70
2022-12-01T12:15:34.040Z,9.25
2022-12-01T12:18:06.185Z,10.40
2022-12-01T12:20:37.718Z,8.82
2022-12-01T12:49:41.276Z,7.07
2022-12-01T12:52:16.711Z,7.68
2022-12-01T12:55:00.433Z,7.40
2022-12-01T12:57:35.333Z,7.00
2022-12-01T13:00:13.961Z,7.28
2022-12-01T13:02:43.258Z,6.85
2022-12-01T13:05:18.432Z,5.70
2022-12-01T13:07:56.963Z,6.62
2022-12-01T13:10:36.618Z,5.90
2022-12-01T13:13:29.559Z,4.70
2022-12-01T13:15:58.213Z,5.35
2022-12-01T13:18:44.201Z,5.53
2022-12-01T13:21:17.771Z,5.05
2022-12-01T13:23:47.219Z,4.90
2022-12-01T13:26:17.752Z,5.12
2022-12-01T13:28:52.146Z,5.32
2022-12-01T13:31:21.012Z,5.82
2022-12-01T13:33:58.024Z,5.57
2022-12-01T13:36:46.400Z,5.37
2022-12-01T13:39:35.925Z,6.28
2022-12-01T13:42:08.927Z,6.03
2022-12-01T13:47:10.624Z,5.87
2022-12-01T13:49:48.674Z,6.32
2022-12-01T13:52:21.582Z,6.10
2022-12-01T13:55:09.632Z,6.10
2022-12-01T13:57:40.583Z,6.07
2022-12-01T14:00:32.624Z,6.65
2022-12-01T14:03:17.405Z,6.43
2022-12-01T14:06:01.984Z,6.30
2022-12-01T14:08:37.884Z,6.62
2022-12-01T14:11:24.227Z,5.87
2022-12-01T14:13:53.482Z,6.03
2022-12-01T14:16:21.041Z,6.25
2022-12-01T14:18:58.776Z,6.28
2022-12-01T14:21:49.685Z,6.22
2022-12-01T14:24:36.479Z,6.70
2022-12-01T14:27:05.585Z,6.25
2022-12-01T14:29:40.062Z,6.32
2022-12-01T14:32:09.527Z,5.70
2022-12-01T14:34:38.194Z,6.15
2022-12-01T14:37:18.775Z,7.22
2022-12-01T14:40:08.351Z,7.18
2022-12-01T14:42:59.511Z,6.07
2022-12-01T14:45:53.055Z,6.75
2022-12-01T14:51:00.988Z,7.20
2022-12-01T14:53:31.734Z,6.72
2022-12-01T14:56:11.224Z,6.65
2022-12-01T14:58:37.764Z,8.35
2022-12-01T15:01:04.463Z,8.30
2022-12-01T15:03:42.394Z,8.55
2022-12-01T15:06:10.224Z,8.40
2022-12-01T15:08:49.154Z,7.78
2022-12-01T15:11:25.767Z,7.72
2022-12-01T15:13:57.027Z,7.68
2022-12-01T15:16:26.288Z,8.55
2022-12-01T15:18:53.333Z,10.10
2022-12-01T15:21:22.465Z,8.93
2022-12-01T15:24:00.764Z,9.63
2022-12-01T15:26:45.267Z,14.02
2022-12-01T15:29:23.879Z,24.40
2022-12-01T15:31:53.974Z,26.48
2022-12-01T15:34:24.785Z,18.25
2022-12-01T15:36:56.307Z,16.50
2022-12-01T15:39:36.062Z,15.32
2022-12-01T15:42:03.782Z,12.37
2022-12-01T15:44:33.954Z,11.70
2022-12-01T15:47:20.480Z,11.18
2022-12-01T15:49:49.977Z,11.10
2022-12-01T15:52:16.835Z,10.75
2022-12-01T15:54:48.594Z,10.90
2022-12-01T15:57:20.252Z,11.00
2022-12-01T15:59:55.237Z,10.90
2022-12-01T16:02:32.484Z,10.43
2022-12-01T16:05:13.235Z,10.15
2022-12-01T16:10:33.066Z,11.77
2022-12-01T16:13:51.013Z,13.88
2022-12-01T16:16:37.768Z,13.48
2022-12-01T16:19:22.829Z,14.57
2022-12-01T16:21:50.616Z,15.50
2022-12-01T16:24:49.795Z,15.52
2022-12-01T16:27:29.955Z,16.62
2022-12-01T16:30:00.810Z,17.27
2022-12-01T16:32:39.294Z,16.15
2022-12-01T16:35:21.656Z,15.45
2022-12-01T16:37:48.193Z,15.03
2022-12-01T16:40:15.149Z,14.95
2022-12-01T16:42:41.659Z,14.15
2022-12-01T16:45:14.720Z,14.07
2022-12-01T16:50:19.795Z,15.10
2022-12-01T16:52:47.032Z,14.57
2022-12-01T16:55:22.529Z,14.27
2022-12-01T16:57:49.116Z,14.90
2022-12-01T17:00:16.134Z,14.43
2022-12-01T17:02:42.773Z,14.73
2022-12-01T17:05:11.203Z,17.58
2022-12-01T17:07:37.864Z,18.40
2022-12-01T17:10:05.084Z,17.42
2022-12-01T17:12:31.655Z,17.37
2022-12-01T17:14:58.199Z,18.02
2022-12-01T17:17:25.456Z,16.58
2022-12-01T17:19:52.976Z,16.85
2022-12-01T17:22:19.933Z,17.20
2022-12-01T17:24:46.492Z,17.27
2022-12-01T17:27:13.039Z,17.42
2022-12-01T17:29:45.714Z,18.77
2022-12-01T17:32:13.803Z,17.87
2022-12-01T17:34:40.668Z,17.58
2022-12-01T17:37:07.795Z,17.67
2022-12-01T17:39:34.617Z,17.98
2022-12-01T17:42:01.203Z,18.27
2022-12-01T17:44:27.885Z,18.15
2022-12-01T17:46:54.545Z,17.92
2022-12-01T17:49:21.314Z,17.95
2022-12-01T17:51:48.086Z,18.27
2022-12-01T17:54:14.673Z,19.20
2022-12-01T17:56:41.416Z,19.73
2022-12-01T17:59:07.970Z,19.10
2022-12-01T18:01:34.908Z,18.45
2022-12-01T18:04:01.599Z,18.77
2022-12-01T18:06:28.507Z,19.02
2022-12-01T18:08:55.181Z,19.52
2022-12-01T18:11:23.994Z,23.05
2022-12-01T18:13:51.518Z,28.17
2022-12-01T18:16:23.368Z,39.50
2022-12-01T18:18:50.312Z,47.55
2022-12-01T18:21:19.356Z,43.30
2022-12-01T18:23:53.700Z,39.22
2022-12-01T18:26:22.193Z,32.92
2022-12-01T18:29:00.941Z,30.90
2022-12-01T18:31:29.331Z,28.00
2022-12-01T18:34:05.129Z,32.13
2022-12-01T18:36:33.860Z,38.60
2022-12-01T18:39:01.964Z,39.17
2022-12-01T18:41:28.945Z,35.38
2022-12-01T18:43:55.776Z,31.25
2022-12-01T18:46:22.977Z,31.20
2022-12-01T18:48:51.882Z,31.20
2022-12-01T18:51:19.571Z,30.83
2022-12-01T18:53:46.245Z,31.12
2022-12-01T18:56:15.237Z,32.45
2022-12-01T18:58:42.980Z,31.67
2022-12-01T19:01:22.015Z,31.08
2022-12-01T19:03:48.758Z,30.33
2022-12-01T19:06:15.344Z,30.80
2022-12-01T19:08:41.918Z,30.98
2022-12-01T19:11:08.915Z,30.42
2022-12-01T19:13:35.986Z,32.65
2022-12-01T19:16:11.085Z,31.80
2022-12-01T19:18:37.747Z,33.50
2022-12-01T19:21:06.129Z,31.17
2022-12-01T19:23:32.946Z,30.98
2022-12-01T19:26:04.961Z,29.40
2022-12-01T19:28:33.045Z,33.03
2022-12-01T19:31:00.030Z,31.50
2022-12-01T19:33:29.591Z,30.20
2022-12-01T19:35:56.173Z,29.65
2022-12-01T19:38:22.703Z,30.62
2022-12-01T19:40:50.324Z,28.50
2022-12-01T19:43:16.842Z,29.00
2022-12-01T19:45:43.390Z,28.80
2022-12-01T19:48:10.031Z,25.92
2022-12-01T19:50:36.879Z,29.87
2022-12-01T19:53:04.335Z,29.25
2022-12-01T19:55:31.013Z,28.08
2022-12-01T19:57:57.579Z,36.45
2022-12-01T20:00:27.240Z,42.33
2022-12-01T20:02:53.842Z,44.13
2022-12-01T20:05:20.426Z,39.90
2022-12-01T20:07:47.773Z,38.92
2022-12-01T20:10:14.577Z,36.20
2022-12-01T20:12:41.243Z,34.53
2022-12-01T20:15:08.743Z,35.40
2022-12-01T20:17:36.877Z,34.45
2022-12-01T20:20:04.914Z,32.72
2022-12-01T20:22:33.082Z,30.58
2022-12-01T20:24:59.859Z,28.38
2022-12-01T20:27:27.594Z,26.75
2022-12-01T20:29:54.951Z,28.05
2022-12-01T20:32:23.796Z,26.85
2022-12-01T20:34:50.929Z,25.98
2022-12-01T20:37:17.769Z,25.55
2022-12-01T20:39:44.276Z,24.85
2022-12-01T20:42:13.561Z,24.67
2022-12-01T20:44:40.432Z,24.27
2022-12-01T20:47:07.039Z,23.83
2022-12-01T20:49:33.610Z,20.20
2022-12-01T20:52:00.151Z,20.45
2022-12-01T20:54:28.379Z,20.88
2022-12-01T20:56:55.747Z,21.20
2022-12-01T20:59:22.716Z,21.48
2022-12-01T21:01:49.299Z,21.33
2022-12-01T21:04:15.877Z,21.48
2022-12-01T21:06:42.468Z,20.52
2022-12-01T21:09:09.152Z,20.20
2022-12-01T21:12:09.155Z,23.15
2022-12-01T21:14:52.825Z,21.45
2022-12-01T21:17:31.710Z,21.37
2022-12-01T21:20:11.797Z,21.87
2022-12-01T21:22:38.702Z,21.52
2022-12-01T21:25:18.857Z,21.50
2022-12-01T21:27:48.610Z,20.73
2022-12-01T21:30:15.965Z,20.80
2022-12-01T21:33:20.731Z,20.92
2022-12-01T21:36:15.784Z,21.52
2022-12-01T21:38:43.421Z,22.45
2022-12-01T21:41:20.612Z,24.25
2022-12-01T21:43:47.143Z,22.23
2022-12-01T21:46:16.317Z,21.08
2022-12-01T21:54:13.358Z,22.40
2022-12-01T21:56:39.976Z,20.85
2022-12-01T21:59:16.480Z,21.45
2022-12-01T22:01:43.243Z,22.08
2022-12-01T22:04:16.967Z,21.12
2022-12-01T22:12:12.933Z,20.20
2022-12-01T22:14:39.698Z,20.17
2022-12-01T22:39:31.138Z,20.95
2022-12-01T22:42:00.807Z,19.52
2022-12-01T22:44:30.992Z,19.20
2022-12-01T22:47:02.405Z,18.45
2022-12-01T22:49:29.980Z,20.00
2022-12-01T22:56:07.729Z,18.87
2022-12-01T23:01:34.071Z,19.20
2022-12-01T23:04:19.730Z,18.05
2022-12-01T23:06:55.422Z,17.83
2022-12-01T23:09:24.449Z,17.83
2022-12-01T23:12:11.615Z,17.77
2022-12-01T23:14:50.741Z,18.73
2022-12-01T23:17:32.824Z,16.87
2022-12-01T23:20:11.717Z,17.55
2022-12-01T23:22:38.807Z,16.40
2022-12-01T23:25:20.125Z,16.85
2022-12-01T23:27:50.003Z,16.20
2022-12-01T23:30:17.678Z,17.52
2022-12-01T23:32:44.791Z,18.42
2022-12-01T23:35:17.594Z,17.37
2022-12-01T23:37:47.678Z,17.37
2022-12-01T23:40:26.836Z,17.77
2022-12-01T23:42:53.487Z,17.27
2022-12-01T23:45:22.689Z,16.92
2022-12-01T23:47:50.783Z,16.05
2022-12-01T23:50:24.697Z,16.45
2022-12-01T23:52:51.877Z,16.33
2022-12-01T23:55:27.163Z,16.50
2022-12-01T23:57:54.285Z,16.42
